Aeroporto :







RITROVATECI SU...

 
LOGIN :

Iscrizione | Disclaimer

   EN    FR    IT 

 









Sommario :    VFR   VFR Marginale   IFR   IFR Intensivo   IFR Molto Intensivo
Visibilità : 
Base nubi : 
>= 8 km
>= 3000ft
5 / 8 km
1000 / 3000 ft
1500m / 5 km
500 / 1000 ft
800 / 1500m
200 / 500 ft
< 800m
< 200 ft
Simboli :   Temporali  Nebbia  Neve Forte  Precipitazioni Forti  Vento > 20 kt






- Altitudine del aeroporto : 20 ft
- Codice IATA : BOS


KBOS - General Edward Lawrence Logan International

ULTIMO METAR :
  • 121854Z 26011G20KT 10SM BKN060 31/18 A2962 RMK AO2 SLP031 T03110178

METARs OBSOLETI :
  • 121754Z 24014G19KT 10SM BKN045 29/18 A2962 RMK AO2 SLP030 T02940183 10306 20250 58003
  • 121654Z 25014G23KT 10SM SCT044 30/18 A2963 RMK AO2 SLP031 T03000183

TAF KBOS
Valido dal 12 a 18 ore il 14 a 00 ore UTC


121725Z 1218/1324 25015G19KT P6SM SCT045
FM130000 23009KT P6SM SCT050
FM131100 19006KT P6SM VCSH BKN040
FM131400 19006KT 6SM -SHRA BR BKN040
FM132000 24007KT 5SM SHRA OVC040
FIR KZBW / America del Nord



MetMap, La meteo Aeronautica in un colpo d'occhio ! - Copyright ORBIFLY Dicembre 2007 - Disclaimer

ORBIFLY MET'MAP TEAM :

Programmazione e sviluppo : Alexandra Zaïnal
Concezione : Baudouin d'Aumeries
Aiuto per la programmazione : Marc-Olivier Méhu
Supporto tecnico e logistico : Manuel Goepfert
Aiuto per la traduzione : Arnaldo La Scala

Contatto : metmap@orbifly.com




FONTI E CREDITI :

   NOAA